Flight Track Log - Related Links

Times and Time Zones

All times are in EDT time to prevent confusion due to time zone crossing. See the DAL1005 flight status page for this flight to view local times or setup timezone preferences in your user account.

Time Position Orientation Groundspeed Altitude Reporting Facility
EDT Latitude Longitude Course Direction KTS MPH feet Rate Location/Type
Tue 06:42:59 PM 35.1922 -80.9497 52° Northeast 153 176 2,300  Level FAA TRACON SMA TRACON (SMA)
Tue 06:43:19 PM 35.1781 -80.9483 175° South 161 185 3,000 2,700 Climbing FAA TRACON SMA TRACON (SMA)
Tue 06:43:39 PM 35.1567 -80.9475 178° South 208 239 4,100 3,000 Climbing FAA TRACON SMA TRACON (SMA)
Tue 06:43:59 PM 35.1381 -80.9531 194° South 230 265 5,000 2,550 Climbing FAA TRACON SMA TRACON (SMA)
Tue 06:44:19 PM 35.1181 -80.9606 197° South 247 284 5,800 3,150 Climbing FAA TRACON SMA TRACON (SMA)
Tue 06:44:39 PM 35.0964 -80.9844 222° Southwest 280 322 7,100 3,000 Climbing FAA TRACON SMA TRACON (SMA)
Tue 06:44:59 PM 35.0925 -81.0128 260° West 257 296 7,800 1,350 Climbing FAA TRACON SMA TRACON (SMA)
Tue 06:45:00 PM 35.1329 -81.2167 North  Level FlightAware Approximate
Tue 06:45:19 PM 35.0931 -81.0408 271° West 269 310 8,000  Level FAA TRACON SMA TRACON (SMA)
Tue 06:45:39 PM 35.0925 -81.0764 269° West 270 311 8,400 2,250 Climbing FAA TRACON SMA TRACON (SMA)
Tue 06:45:59 PM 35.0936 -81.1058 273° West 288 331 9,500 3,600 Climbing FAA TRACON SMA TRACON (SMA)
Tue 06:46:00 PM 35.2533 -81.2167 North  Level FlightAware Approximate
Tue 06:46:19 PM 35.1019 -81.1328 291° West 270 311 10,800  Level FAA TRACON SMA TRACON (SMA)
Tue 06:46:40 PM 35.1147 -81.1692 293° West 315 362 11,500 2,550 Climbing FAA TRACON SMA TRACON (SMA)
Tue 06:46:59 PM 35.1294 -81.1992 301° West 339 390 12,500 2,850 Climbing FAA TRACON SMA TRACON (SMA)
Tue 06:47:00 PM 35.3221 -81.1059 52° Northeast  Level FlightAware Approximate
Tue 06:47:20 PM 35.1500 -81.2172 324° Northwest 335 386 13,400  Level FAA TRACON SMA TRACON (SMA)
Tue 06:47:40 PM 35.1889 -81.2247 351° North 341 392 14,000 900 Climbing FAA TRACON SMA TRACON (SMA)
Tue 06:48:00 PM 35.3961 -80.9894 52° Northeast  Level FlightAware Approximate
Tue 06:48:00 PM 35.2183 -81.2267 357° North 342 394 14,000  Level FAA TRACON SMA TRACON (SMA)
Tue 06:48:20 PM 35.2475 -81.2264 360° North 342 394 14,000  Level FAA TRACON SMA TRACON (SMA)
Tue 06:48:40 PM 35.2822 -81.2067 25° Northeast 365 420 14,000  Level FAA TRACON SMA TRACON (SMA)
Tue 06:48:59 PM 35.3025 -81.1778 49° Northeast 362 417 14,000  Level FAA TRACON SMA TRACON (SMA)
Tue 06:49:19 PM 35.3219 -81.1508 49° Northeast 366 421 14,000 150 Level FAA TRACON SMA TRACON (SMA)
Tue 06:49:39 PM 35.3522 -81.1372 20° North 345 397 14,100 1,650 Climbing FAA TRACON SMA TRACON (SMA)
Tue 06:49:59 PM 35.3894 -81.1361 North 345 397 15,100 3,300 Climbing FAA TRACON SMA TRACON (SMA)
Tue 06:50:19 PM 35.4194 -81.1353 North 347 399 16,300 3,600 Climbing FAA TRACON SMA TRACON (SMA)
Tue 06:50:39 PM 35.4489 -81.1350 360° North 343 395 17,500 2,100 Climbing FAA TRACON SMA TRACON (SMA)
Tue 06:50:59 PM 35.4561 -81.1347 North 345 397 17,700 2,514 Climbing FAA TRACON SMA TRACON (SMA)
Tue 06:51:53 PM 35.5628 -81.1308 North 353 406 20,600 2,737 Climbing Atlanta Center
Tue 06:52:53 PM 35.6714 -81.1322 359° North 375 432 22,900 1,200 Climbing Atlanta Center
Tue 06:53:53 PM 35.7778 -81.1336 359° North 381 438 23,000 650 Climbing Atlanta Center
Tue 06:54:53 PM 35.8925 -81.1319 North 393 452 24,200 1,650 Climbing Atlanta Center
Tue 06:55:53 PM 36.0133 -81.1328 360° North 418 481 26,300 1,850 Climbing Atlanta Center
Tue 06:56:53 PM 36.1364 -81.1308 North 432 497 27,900 850 Climbing Atlanta Center
Tue 06:57:53 PM 36.2589 -81.1033 10° North 443 510 28,000 50 Climbing Atlanta Center
Tue 06:58:53 PM 36.3478 -80.9842 47° Northeast 446 513 28,000  Level Atlanta Center
Tue 06:59:53 PM 36.4294 -80.8367 55° Northeast 465 535 28,000 500 Level Atlanta Center
Tue 07:00:53 PM 36.5094 -80.7067 53° Northeast 471 542 29,000 750 Climbing Atlanta Center
Tue 07:01:53 PM 36.6089 -80.6044 40° Northeast 466 536 29,500 1,283 Climbing Atlanta Center
Tue 07:03:46 PM 36.7889 -80.4186 40° Northeast 466 536 32,700 1,630 Climbing Washington Center
Tue 07:04:46 PM 36.8911 -80.3158 39° Northeast 466 536 34,200 1,350 Climbing Washington Center
Tue 07:05:46 PM 36.9933 -80.2103 40° Northeast 466 536 35,400 1,900 Climbing Washington Center
Tue 07:06:46 PM 37.1019 -80.0972 40° Northeast 466 536 38,000 1,750 Climbing Washington Center
Tue 07:07:46 PM 37.1953 -79.9983 40° Northeast 453 521 38,900 500 Climbing Washington Center
Tue 07:08:46 PM 37.2950 -79.8944 40° Northeast 453 521 39,000 50 Climbing Washington Center
Tue 07:09:46 PM 37.3925 -79.7928 40° Northeast 453 521 39,000  Level Washington Center
Tue 07:10:46 PM 37.4856 -79.6958 40° Northeast 471 542 39,000  Level Washington Center
Tue 07:11:46 PM 37.5939 -79.5811 40° Northeast 471 542 39,000  Level Washington Center
Tue 07:12:46 PM 37.6944 -79.5050 31° Northeast 466 536 39,000  Level Washington Center
Tue 07:13:46 PM 37.8153 -79.5086 359° North 441 507 39,000 -50 Level Washington Center
Tue 07:14:46 PM 37.9219 -79.5642 338° Northwest 398 458 38,900  Descending Washington Center
Tue 07:15:46 PM 38.0347 -79.6203 339° North 413 475 39,000 50 Climbing Washington Center
Tue 07:16:46 PM 38.1492 -79.6872 335° Northwest 418 481 39,000  Level Washington Center
Tue 07:17:46 PM 38.2714 -79.6567 11° North 412 474 39,000  Level Washington Center
Tue 07:18:46 PM 38.3525 -79.5342 50° Northeast 394 453 39,000  Level Washington Center
Tue 07:19:46 PM 38.4236 -79.3975 56° Northeast 423 487 39,000  Level Washington Center
Tue 07:20:46 PM 38.4903 -79.2708 56° Northeast 448 516 39,000  Level Washington Center
Tue 07:21:46 PM 38.5972 -79.1806 33° Northeast 426 490 39,000  Level Washington Center
Tue 07:22:46 PM 38.6994 -79.1775 North 391 450 39,000  Level Washington Center
Tue 07:23:46 PM 38.8197 -79.1967 353° North 410 472 39,000  Level Washington Center
Tue 07:24:46 PM 38.9361 -79.2131 354° North 410 472 39,000  Level Washington Center
Tue 07:25:46 PM 39.0500 -79.2322 353° North 410 472 39,000  Level Washington Center
Tue 07:26:46 PM 39.1694 -79.2139 North 415 478 39,000  Level Washington Center
Tue 07:27:46 PM 39.2931 -79.1933 North 432 497 39,000  Level Washington Center
Tue 07:28:46 PM 39.4125 -79.1697 North 432 497 39,000  Level Washington Center
Tue 07:29:45 PM 39.5319 -79.1486 North 427 491 39,000  Level Washington Center
Tue 07:31:39 PM 39.7719 -79.1111 North 428 493 39,000  Level Cleveland Center
Tue 07:32:39 PM 39.8906 -79.0950 North 423 487 39,000  Level Cleveland Center
Tue 07:33:39 PM 40.0114 -79.0869 North 423 487 39,000 -200 Level Cleveland Center
Tue 07:34:39 PM 40.1261 -79.0842 North 417 480 38,600 -450 Descending Cleveland Center
Tue 07:35:39 PM 40.2386 -79.0817 North 412 474 38,100 -767 Descending Cleveland Center
Tue 07:37:39 PM 40.4703 -79.0931 358° North 412 474 36,300 -1,233 Descending Cleveland Center
Tue 07:38:39 PM 40.5869 -79.0931 360° North 412 474 34,400 -1,150 Descending Cleveland Center
Tue 07:39:39 PM 40.7094 -79.0492 15° North 431 496 34,000 -200 Descending Cleveland Center
Tue 07:40:39 PM 40.8294 -78.9889 21° North 431 496 34,000  Level Cleveland Center
Tue 07:41:39 PM 40.9442 -78.9914 359° North 411 473 34,000  Level Cleveland Center
Tue 07:42:39 PM 41.0328 -79.0747 325° Northwest 376 433 34,000  Level Cleveland Center
Tue 07:43:39 PM 41.0636 -79.2033 288° West 330 380 34,000  Level Cleveland Center
Tue 07:44:39 PM 41.0778 -79.3325 278° West 335 386 34,000 -200 Level Cleveland Center
Tue 07:45:39 PM 41.0914 -79.4644 278° West 345 397 33,600 -450 Descending Cleveland Center
Tue 07:46:39 PM 41.1053 -79.5939 278° West 356 410 33,100 -500 Descending Cleveland Center
Tue 07:47:39 PM 41.1208 -79.7231 279° West 356 410 32,600 -500 Descending Cleveland Center
Tue 07:48:39 PM 41.1322 -79.8608 276° West 367 422 32,100 -500 Descending Cleveland Center
Tue 07:49:39 PM 41.1475 -79.9958 279° West 372 428 31,600 -500 Descending Cleveland Center
Tue 07:50:39 PM 41.1628 -80.1281 279° West 372 428 31,100 -450 Descending Cleveland Center
Tue 07:51:39 PM 41.1778 -80.2575 279° West 372 428 30,700 -450 Descending Cleveland Center
Tue 07:52:39 PM 41.1906 -80.3956 277° West 378 435 30,200 -350 Descending Cleveland Center
Tue 07:53:39 PM 41.2033 -80.5306 277° West 378 435 30,000 -100 Descending Cleveland Center
Tue 07:54:39 PM 41.2178 -80.6742 278° West 372 428 30,000  Level Cleveland Center
Tue 07:55:39 PM 41.2303 -80.8094 277° West 372 428 30,000  Level Cleveland Center
Tue 07:56:39 PM 41.2444 -80.9394 278° West 366 421 30,000  Level Cleveland Center
Tue 07:57:39 PM 41.2564 -81.0719 277° West 372 428 30,000 -350 Level Cleveland Center
Tue 07:58:39 PM 41.2683 -81.2047 277° West 372 428 29,300 -1,500 Descending Cleveland Center
Tue 07:59:39 PM 41.2883 -81.3292 282° West 360 414 27,000 -1,850 Descending Cleveland Center
Tue 08:00:39 PM 41.3169 -81.4319 290° West 345 397 25,600 -2,389 Descending Cleveland Center
Tue 08:01:27 PM 41.3347 -81.5372 283° West 304 350 22,700 -3,100 Descending Cleveland Center
Tue 08:02:39 PM 41.3608 -81.6539 287° West 319 367 19,400 -2,636 Descending Cleveland Center
Tue 08:03:39 PM 41.3808 -81.7536 285° West 300 345 16,900 -2,850 Descending Cleveland Center
Tue 08:04:39 PM 41.3942 -81.8619 279° West 287 330 13,700 -1,950 Descending Cleveland Center
Tue 08:05:39 PM 41.3892 -81.9419 265° West 280 322 13,000 -950 Descending Cleveland Center
Tue 08:06:39 PM 41.3506 -82.0214 237° Southwest 248 285 11,800 -1,700 Descending Cleveland Center
Tue 08:07:39 PM 41.3161 -82.1036 241° Southwest 237 273 9,600 -1,850 Descending Cleveland Center
Tue 08:08:39 PM 41.2881 -82.1722 241° Southwest 237 273 8,100 -1,483 Descending Cleveland Center
Tue 08:09:08 PM 41.2731 -82.1994 234° Southwest 178 205 7,400 -1,600 Descending Cleveland Center
Tue 08:09:39 PM 41.2481 -82.1986 179° South 202 232 6,500 -2,400 Descending Cleveland Center
Tue 08:10:03 PM 41.2339 -82.1764 130° Southeast 222 255 5,200 -1,500 Descending Cleveland Center
Tue 08:10:39 PM 41.2431 -82.1186 78° East 127 146 5,000 -197 Descending Cleveland Center
Tue 08:11:04 PM 41.2578 -82.0994 44° Northeast 232 267 5,000 -847 Level Cleveland Center
Tue 08:12:04 PM 41.2961 -82.0342 52° Northeast 218 251 3,800 -1,096 Descending Cleveland Center
Tue 08:12:59 PM 41.3281 -81.9878 47° Northeast 186 214 2,900 -887 Descending Cleveland Center
Tue 08:13:59 PM 41.3536 -81.9442 52° Northeast 131 151 2,100 -800 Descending Cleveland Center

Login

Don't have an account? Register now (free) for customized features, flight alerts, and more!